createdAt,value
2023-05-31T00:01:38.815Z,95829.97
2023-05-31T00:04:10.605Z,95824.19
2023-05-31T00:06:42.048Z,95828.44
2023-05-31T00:09:13.480Z,95834.59
2023-05-31T00:11:44.879Z,95831.94
2023-05-31T00:14:16.483Z,95825.78
2023-05-31T00:17:15.614Z,95830.44
2023-05-31T00:19:39.591Z,95821.63
2023-05-31T00:22:11.458Z,95822.38
2023-05-31T00:24:42.827Z,95824.72
2023-05-31T00:27:14.250Z,95824.03
2023-05-31T00:29:45.837Z,95824.75
2023-05-31T00:32:17.230Z,95827.09
2023-05-31T00:34:48.600Z,95829.81
2023-05-31T00:37:20.002Z,95827.09
2023-05-31T00:39:51.386Z,95819.81
2023-05-31T00:42:22.940Z,95819.50
2023-05-31T00:44:54.299Z,95831.00
2023-05-31T00:47:26.966Z,95827.16
2023-05-31T00:49:59.230Z,95833.34
2023-05-31T00:52:32.378Z,95840.63
2023-05-31T00:55:04.032Z,95833.72
2023-05-31T00:57:35.619Z,95831.81
2023-05-31T01:00:09.089Z,95824.16
2023-05-31T01:02:42.599Z,95833.34
2023-05-31T01:05:14.017Z,95834.50
2023-05-31T01:07:45.904Z,95833.38
2023-05-31T01:10:17.361Z,95839.50
2023-05-31T01:12:48.834Z,95842.97
2023-05-31T01:15:23.258Z,95843.34
2023-05-31T01:18:03.553Z,95831.84
2023-05-31T01:20:35.739Z,95832.59
2023-05-31T01:23:07.406Z,95841.44
2023-05-31T01:25:48.355Z,95843.72
2023-05-31T01:28:20.794Z,95832.59
2023-05-31T01:30:53.080Z,95827.22
2023-05-31T01:33:24.798Z,95821.88
2023-05-31T01:35:56.147Z,95824.53
2023-05-31T01:38:27.522Z,95825.69
2023-05-31T01:40:59.180Z,95821.09
2023-05-31T01:43:31.616Z,95817.25
2023-05-31T01:46:04.232Z,95821.88
2023-05-31T01:48:35.844Z,95822.63
2023-05-31T01:51:08.858Z,95824.19
2023-05-31T01:53:40.324Z,95824.16
2023-05-31T01:56:12.134Z,95819.97
2023-05-31T01:58:49.844Z,95819.97
2023-05-31T02:01:21.639Z,95818.81
2023-05-31T02:03:53.297Z,95813.06
2023-05-31T02:06:28.054Z,95816.88
2023-05-31T02:08:59.906Z,95818.06
2023-05-31T02:11:31.314Z,95818.84
2023-05-31T02:14:02.901Z,95819.97
2023-05-31T02:16:34.295Z,95820.75
2023-05-31T02:19:05.682Z,95821.91
2023-05-31T02:21:37.208Z,95819.19
2023-05-31T02:24:08.721Z,95817.66
2023-05-31T02:26:40.102Z,95819.22
2023-05-31T02:29:11.557Z,95824.56
2023-05-31T02:31:43.036Z,95823.03
2023-05-31T02:34:15.075Z,95814.97
2023-05-31T02:36:46.771Z,95818.44
2023-05-31T02:39:18.199Z,95814.97
2023-05-31T02:41:49.590Z,95818.81
2023-05-31T02:44:21.401Z,95816.09
2023-05-31T02:46:52.910Z,95811.88
2023-05-31T02:49:24.476Z,95818.41
2023-05-31T02:51:55.880Z,95815.34
2023-05-31T02:54:27.266Z,95811.13
2023-05-31T02:57:00.194Z,95814.97
2023-05-31T02:59:31.972Z,95814.56
2023-05-31T03:02:03.480Z,95817.63
2023-05-31T03:04:34.943Z,95814.19
2023-05-31T03:07:06.527Z,95821.09
2023-05-31T03:09:37.989Z,95814.16
2023-05-31T03:12:09.811Z,95821.81
2023-05-31T03:14:41.282Z,95816.06
2023-05-31T03:17:12.983Z,95812.59
2023-05-31T03:19:44.553Z,95821.38
2023-05-31T03:22:15.959Z,95816.75
2023-05-31T03:24:47.533Z,95820.94
2023-05-31T03:27:19.073Z,95824.78
2023-05-31T03:29:50.516Z,95814.44
2023-05-31T03:32:21.922Z,95818.63
2023-05-31T03:34:53.352Z,95823.63
2023-05-31T03:37:24.871Z,95822.47
2023-05-31T03:39:56.521Z,95820.16
2023-05-31T03:42:27.945Z,95833.56
2023-05-31T03:44:59.625Z,95828.59
2023-05-31T03:47:31.145Z,95829.72
2023-05-31T03:50:04.509Z,95839.69
2023-05-31T03:52:38.770Z,95831.63
2023-05-31T03:55:10.572Z,95840.03
2023-05-31T03:57:42.103Z,95830.06
2023-05-31T04:00:13.912Z,95830.84
2023-05-31T04:02:59.925Z,95837.75
2023-05-31T04:05:34.742Z,95838.88
2023-05-31T04:08:06.187Z,95834.69
2023-05-31T04:10:38.144Z,95834.28
2023-05-31T04:13:10.178Z,95831.22
2023-05-31T04:15:41.577Z,95836.59
2023-05-31T04:18:13.171Z,95837.75
2023-05-31T04:20:44.677Z,95838.91
2023-05-31T04:23:16.114Z,95835.84
2023-05-31T04:25:48.844Z,95841.22
2023-05-31T04:28:20.666Z,95840.84
2023-05-31T04:30:53.002Z,95844.31
2023-05-31T04:33:24.541Z,95845.06
2023-05-31T04:35:57.968Z,95844.75
2023-05-31T04:38:29.520Z,95847.44
2023-05-31T04:41:01.627Z,95847.44
2023-05-31T04:43:33.274Z,95850.16
2023-05-31T04:46:04.741Z,95849.44
2023-05-31T04:48:37.206Z,95837.94
2023-05-31T04:51:08.609Z,95839.88
2023-05-31T04:53:40.160Z,95842.94
2023-05-31T04:56:13.629Z,95847.16
2023-05-31T04:58:45.147Z,95841.78
2023-05-31T05:01:16.651Z,95842.56
2023-05-31T05:03:48.147Z,95851.03
2023-05-31T05:06:19.875Z,95849.09
2023-05-31T05:08:51.565Z,95849.50
2023-05-31T05:11:23.238Z,95845.28
2023-05-31T05:13:54.814Z,95849.91
2023-05-31T05:16:26.296Z,95855.66
2023-05-31T05:18:57.674Z,95854.88
2023-05-31T05:21:29.994Z,95854.13
2023-05-31T05:24:01.674Z,95854.88
2023-05-31T05:26:33.929Z,95854.91
2023-05-31T05:29:05.340Z,95858.34
2023-05-31T05:31:36.794Z,95852.59
2023-05-31T05:34:08.431Z,95856.81
2023-05-31T05:36:39.866Z,95850.28
2023-05-31T05:39:12.284Z,95851.44
2023-05-31T05:41:43.679Z,95846.06
2023-05-31T05:44:15.110Z,95851.41
2023-05-31T05:46:46.757Z,95847.22
2023-05-31T05:49:19.492Z,95849.50
2023-05-31T05:51:51.871Z,95849.13
2023-05-31T05:54:23.270Z,95844.91
2023-05-31T05:56:54.664Z,95842.63
2023-05-31T05:59:26.050Z,95844.13
2023-05-31T06:01:57.448Z,95856.06
2023-05-31T06:04:28.846Z,95851.78
2023-05-31T06:07:00.268Z,95851.78
2023-05-31T06:09:31.670Z,95850.25
2023-05-31T06:12:03.133Z,95847.53
2023-05-31T06:14:34.553Z,95847.53
2023-05-31T06:17:06.195Z,95847.53
2023-05-31T06:19:37.606Z,95852.53
2023-05-31T06:22:09.018Z,95852.91
2023-05-31T06:24:41.314Z,95847.88
2023-05-31T06:27:13.562Z,95850.56
2023-05-31T06:29:44.962Z,95859.00
2023-05-31T06:32:16.330Z,95851.72
2023-05-31T06:34:47.737Z,95863.63
2023-05-31T06:37:19.130Z,95867.81
2023-05-31T06:39:50.907Z,95863.16
2023-05-31T06:42:22.774Z,95862.38
2023-05-31T06:44:56.792Z,95862.38
2023-05-31T06:47:28.934Z,95866.19
2023-05-31T06:50:00.530Z,95868.50
2023-05-31T06:52:32.356Z,95868.06
2023-05-31T06:55:03.862Z,95864.56
2023-05-31T06:57:35.402Z,95866.47
2023-05-31T07:00:08.290Z,95859.91
2023-05-31T07:02:39.792Z,95850.72
2023-05-31T07:05:11.480Z,95859.53
2023-05-31T07:07:42.875Z,95855.25
2023-05-31T07:10:14.322Z,95856.00
2023-05-31T07:12:46.911Z,95853.25
2023-05-31T07:15:18.355Z,95855.56
2023-05-31T07:17:49.788Z,95854.03
2023-05-31T07:20:21.381Z,95860.09
2023-05-31T07:22:52.790Z,95848.13
2023-05-31T07:25:24.768Z,95850.78
2023-05-31T07:27:56.163Z,95850.75
2023-05-31T07:30:28.041Z,95851.88
2023-05-31T07:32:59.575Z,95850.25
2023-05-31T07:35:31.051Z,95849.00
2023-05-31T07:38:02.476Z,95845.53
2023-05-31T07:40:33.906Z,95849.28
2023-05-31T07:43:05.307Z,95851.53
2023-05-31T07:45:36.889Z,95854.56
2023-05-31T07:48:08.797Z,95847.63
2023-05-31T07:50:40.361Z,95858.31
2023-05-31T07:53:11.734Z,95847.50
2023-05-31T07:55:43.351Z,95837.81
2023-05-31T07:58:14.756Z,95829.59
2023-05-31T08:00:46.378Z,95834.56
2023-05-31T08:03:17.946Z,95829.13
2023-05-31T08:05:50.319Z,95836.78
2023-05-31T08:08:21.942Z,95818.59
2023-05-31T08:10:53.445Z,95828.56
2023-05-31T08:13:25.337Z,95819.22
2023-05-31T08:15:56.925Z,95821.50
2023-05-31T08:18:28.447Z,95823.28
2023-05-31T08:21:00.105Z,95818.97
2023-05-31T08:23:31.937Z,95815.38
2023-05-31T08:26:03.595Z,95824.91
2023-05-31T08:28:34.957Z,95817.50
2023-05-31T08:31:06.921Z,95816.66
2023-05-31T08:33:39.331Z,95818.56
2023-05-31T08:36:10.710Z,95817.66
2023-05-31T08:38:42.067Z,95819.09
2023-05-31T08:41:13.634Z,95815.50
2023-05-31T08:43:45.483Z,95814.56
2023-05-31T08:46:16.972Z,95808.63
2023-05-31T08:48:54.892Z,95805.03
2023-05-31T08:51:26.979Z,95797.50
2023-05-31T08:53:58.894Z,95803.91
2023-05-31T08:56:31.057Z,95802.97
2023-05-31T08:59:04.191Z,95800.41
2023-05-31T09:01:36.677Z,95803.31
2023-05-31T09:04:08.140Z,95805.25
2023-05-31T09:06:39.528Z,95803.84
2023-05-31T09:09:11.066Z,95805.22
2023-05-31T09:11:42.530Z,95807.25
2023-05-31T09:14:13.937Z,95794.41
2023-05-31T09:16:45.915Z,95798.81
2023-05-31T09:19:17.516Z,95799.72
2023-05-31T09:21:48.879Z,95796.94
2023-05-31T09:24:20.651Z,95808.00
2023-05-31T09:26:53.632Z,95792.44
2023-05-31T09:29:25.098Z,95798.72
2023-05-31T09:32:10.508Z,95795.25
2023-05-31T09:34:41.920Z,95812.78
2023-05-31T09:37:23.726Z,95795.47
2023-05-31T09:39:56.529Z,95798.41
2023-05-31T09:42:29.849Z,95806.22
2023-05-31T09:45:01.481Z,95799.59
2023-05-31T09:47:32.927Z,95795.22
2023-05-31T09:50:04.993Z,95784.53
2023-05-31T09:52:39.955Z,95792.66
2023-05-31T09:55:12.718Z,95789.38
2023-05-31T09:57:45.592Z,95790.56
2023-05-31T10:00:21.707Z,95783.41
2023-05-31T10:02:53.529Z,95784.66
2023-05-31T10:05:25.268Z,95789.56
2023-05-31T10:07:57.260Z,95781.84
2023-05-31T10:10:28.706Z,95778.50
2023-05-31T10:13:03.947Z,95782.22
2023-05-31T10:15:36.573Z,95783.16
2023-05-31T10:18:11.647Z,95778.00
2023-05-31T10:20:47.351Z,95779.88
2023-05-31T10:23:25.158Z,95780.75
2023-05-31T10:25:57.680Z,95772.50
2023-05-31T10:28:32.429Z,95770.44
2023-05-31T10:31:04.268Z,95768.41
2023-05-31T10:33:35.986Z,95764.91
2023-05-31T10:36:07.437Z,95780.34
2023-05-31T10:38:46.813Z,95773.91
2023-05-31T10:41:26.031Z,95768.72
2023-05-31T10:44:08.705Z,95764.47
2023-05-31T10:46:41.398Z,95767.28
2023-05-31T10:49:13.449Z,95769.78
2023-05-31T10:51:46.544Z,95760.41
2023-05-31T10:54:21.634Z,95753.84
2023-05-31T10:56:53.687Z,95748.31
2023-05-31T10:59:26.727Z,95759.19
2023-05-31T11:02:00.882Z,95756.13
2023-05-31T11:04:32.496Z,95750.47
2023-05-31T11:07:19.621Z,95747.00
2023-05-31T11:09:57.812Z,95746.09
2023-05-31T11:12:36.106Z,95748.06
2023-05-31T11:15:12.820Z,95746.28
2023-05-31T11:17:54.713Z,95752.44
2023-05-31T11:20:29.062Z,95744.94
2023-05-31T11:23:19.522Z,95738.91
2023-05-31T11:26:11.412Z,95745.56
2023-05-31T11:29:00.790Z,95746.47
2023-05-31T11:31:51.102Z,95735.75
2023-05-31T11:34:27.413Z,95732.00
2023-05-31T11:37:00.205Z,95729.66
2023-05-31T11:39:31.867Z,95730.28
2023-05-31T11:42:03.663Z,95733.31
2023-05-31T11:44:38.849Z,95731.06
2023-05-31T11:47:26.268Z,95733.09
2023-05-31T11:49:58.087Z,95732.16
2023-05-31T11:52:30.023Z,95738.06
2023-05-31T11:55:05.466Z,95727.16
2023-05-31T11:57:43.377Z,95729.59
2023-05-31T12:00:16.410Z,95717.81
2023-05-31T12:02:52.414Z,95713.88
2023-05-31T12:05:24.410Z,95720.88
2023-05-31T12:07:56.870Z,95724.81
2023-05-31T12:10:29.158Z,95715.28
2023-05-31T12:13:03.805Z,95720.75
2023-05-31T12:15:35.687Z,95712.56
2023-05-31T12:18:07.320Z,95708.03
2023-05-31T12:20:38.974Z,95714.66
2023-05-31T12:23:15.041Z,95707.25
2023-05-31T12:25:50.235Z,95709.38
2023-05-31T12:28:22.824Z,95706.91
2023-05-31T12:30:57.346Z,95701.88
2023-05-31T12:33:31.925Z,95700.81
2023-05-31T12:36:04.509Z,95701.13
2023-05-31T12:38:39.851Z,95701.13
2023-05-31T12:41:11.243Z,95701.25
2023-05-31T12:43:42.646Z,95700.03
2023-05-31T12:46:17.916Z,95694.97
2023-05-31T12:48:49.534Z,95697.72
2023-05-31T12:51:22.454Z,95699.66
2023-05-31T12:53:53.855Z,95697.38
2023-05-31T12:56:25.754Z,95696.88
2023-05-31T12:58:57.148Z,95694.44
2023-05-31T13:01:28.764Z,95691.91
2023-05-31T13:04:00.247Z,95698.44
2023-05-31T13:06:31.739Z,95694.59
2023-05-31T13:09:05.613Z,95690.69
2023-05-31T13:11:40.596Z,95693.06
2023-05-31T13:14:12.517Z,95684.50
2023-05-31T13:16:43.993Z,95689.91
2023-05-31T13:19:15.500Z,95686.53
2023-05-31T13:21:46.932Z,95674.16
2023-05-31T13:24:18.428Z,95679.63
2023-05-31T13:26:50.017Z,95672.91
2023-05-31T13:29:23.183Z,95679.31
2023-05-31T13:31:54.643Z,95678.84
2023-05-31T13:34:26.435Z,95673.59
2023-05-31T13:36:57.929Z,95662.19
2023-05-31T13:39:29.597Z,95661.09
2023-05-31T13:42:02.608Z,95667.53
2023-05-31T13:44:34.064Z,95667.53
2023-05-31T13:47:05.669Z,95655.13
2023-05-31T13:49:38.267Z,95649.91
2023-05-31T13:52:11.069Z,95642.34
2023-05-31T13:54:43.006Z,95643.84
2023-05-31T13:57:14.473Z,95647.25
2023-05-31T13:59:45.853Z,95636.09
2023-05-31T14:02:17.696Z,95649.72
2023-05-31T14:04:49.052Z,95650.94
2023-05-31T14:07:20.534Z,95642.28
2023-05-31T14:09:51.943Z,95646.97
2023-05-31T14:12:23.364Z,95652.44
2023-05-31T14:14:54.717Z,95640.25
2023-05-31T14:17:26.210Z,95635.59
2023-05-31T14:19:57.600Z,95635.88
2023-05-31T14:22:29.017Z,95637.13
2023-05-31T14:25:00.394Z,95638.94
2023-05-31T14:27:31.757Z,95633.66
2023-05-31T14:30:03.353Z,95635.34
2023-05-31T14:32:34.831Z,95641.47
2023-05-31T14:35:06.850Z,95631.13
2023-05-31T14:37:51.426Z,95625.28
2023-05-31T14:40:30.147Z,95623.13
2023-05-31T14:43:01.603Z,95620.09
2023-05-31T14:45:33.010Z,95624.91
2023-05-31T14:48:04.473Z,95621.63
2023-05-31T14:50:36.098Z,95622.00
2023-05-31T14:53:07.562Z,95623.13
2023-05-31T14:55:38.987Z,95617.81
2023-05-31T14:58:10.750Z,95612.44
2023-05-31T15:00:42.199Z,95623.88
2023-05-31T15:03:13.640Z,95618.03
2023-05-31T15:05:45.315Z,95617.84
2023-05-31T15:08:16.766Z,95624.47
2023-05-31T15:10:48.252Z,95612.28
2023-05-31T15:13:19.684Z,95616.94
2023-05-31T15:15:51.216Z,95617.72
2023-05-31T15:18:22.782Z,95614.75
2023-05-31T15:20:54.266Z,95610.56
2023-05-31T15:23:25.789Z,95600.69
2023-05-31T15:25:57.160Z,95603.53
2023-05-31T15:28:28.668Z,95601.78
2023-05-31T15:31:02.592Z,95595.38
2023-05-31T15:33:34.509Z,95595.97
2023-05-31T15:36:06.136Z,95597.75
2023-05-31T15:38:37.560Z,95588.78
2023-05-31T15:41:08.929Z,95590.00
2023-05-31T15:43:40.470Z,95592.38
2023-05-31T15:46:11.859Z,95592.38
2023-05-31T15:48:43.230Z,95594.78
2023-05-31T15:51:14.690Z,95592.84
2023-05-31T15:53:46.276Z,95591.22
2023-05-31T15:56:17.643Z,95593.81
2023-05-31T15:58:49.038Z,95587.63
2023-05-31T16:01:20.441Z,95582.81
2023-05-31T16:03:52.516Z,95591.97
2023-05-31T16:06:24.069Z,95582.78
2023-05-31T16:08:58.372Z,95585.84
2023-05-31T16:11:32.185Z,95585.00
2023-05-31T16:14:03.662Z,95580.88
2023-05-31T16:16:37.948Z,95582.88
2023-05-31T16:19:09.440Z,95582.00
2023-05-31T16:21:41.911Z,95576.94
2023-05-31T16:24:15.285Z,95579.47
2023-05-31T16:26:46.803Z,95570.03
2023-05-31T16:29:18.388Z,95566.03
2023-05-31T16:31:49.875Z,95574.94
2023-05-31T16:34:21.300Z,95565.16
2023-05-31T16:36:52.670Z,95568.53
2023-05-31T16:39:24.090Z,95575.59
2023-05-31T16:41:55.493Z,95569.75
2023-05-31T16:44:26.867Z,95569.16
2023-05-31T16:46:58.269Z,95563.03
2023-05-31T16:49:29.680Z,95560.38
2023-05-31T16:52:01.137Z,95563.59
2023-05-31T16:54:32.540Z,95564.53
2023-05-31T16:57:04.006Z,95565.47
2023-05-31T16:59:35.639Z,95563.38
2023-05-31T17:02:07.088Z,95566.28
2023-05-31T17:04:38.550Z,95558.66
2023-05-31T17:07:10.483Z,95567.38
2023-05-31T17:09:42.061Z,95558.66
2023-05-31T17:12:13.451Z,95566.00
2023-05-31T17:14:44.848Z,95569.25
2023-05-31T17:17:16.271Z,95566.28
2023-05-31T17:19:47.689Z,95569.94
2023-05-31T17:22:19.427Z,95573.31
2023-05-31T17:24:50.801Z,95573.97
2023-05-31T17:27:22.156Z,95574.59
2023-05-31T17:29:53.510Z,95572.31
2023-05-31T17:32:25.427Z,95577.34
2023-05-31T17:34:56.808Z,95573.28
2023-05-31T17:37:31.130Z,95570.84
2023-05-31T17:40:02.602Z,95576.50
2023-05-31T17:42:33.976Z,95570.28
2023-05-31T17:45:05.783Z,95569.97
2023-05-31T17:47:37.296Z,95566.19
2023-05-31T17:50:12.364Z,95575.88
2023-05-31T17:52:44.244Z,95574.94
2023-05-31T17:55:15.793Z,95568.44
2023-05-31T17:57:47.209Z,95578.09
2023-05-31T18:00:18.689Z,95571.41
2023-05-31T18:02:50.250Z,95573.50
2023-05-31T18:05:21.875Z,95575.75
2023-05-31T18:07:53.301Z,95573.06
2023-05-31T18:10:24.765Z,95572.16
2023-05-31T18:12:56.190Z,95575.47
2023-05-31T18:15:27.646Z,95576.38
2023-05-31T18:17:59.050Z,95569.31
2023-05-31T18:20:30.464Z,95576.59
2023-05-31T18:23:01.823Z,95577.13
2023-05-31T18:25:33.231Z,95571.00
2023-05-31T18:28:04.664Z,95572.31
2023-05-31T18:30:36.119Z,95568.25
2023-05-31T18:33:07.613Z,95578.16
2023-05-31T18:35:41.686Z,95583.84
2023-05-31T18:38:13.165Z,95587.91
2023-05-31T18:40:44.544Z,95588.94
2023-05-31T18:43:18.006Z,95582.53
2023-05-31T18:45:49.595Z,95589.41
2023-05-31T18:48:21.763Z,95578.78
2023-05-31T18:50:53.146Z,95584.00
2023-05-31T18:53:24.588Z,95580.75
2023-05-31T18:55:57.191Z,95582.97
2023-05-31T18:58:30.384Z,95591.78
2023-05-31T19:01:02.023Z,95585.06
2023-05-31T19:03:33.724Z,95577.56
2023-05-31T19:06:05.904Z,95579.00
2023-05-31T19:08:37.245Z,95582.28
2023-05-31T19:11:08.636Z,95586.44
2023-05-31T19:13:40.003Z,95588.16
2023-05-31T19:16:11.369Z,95595.31
2023-05-31T19:18:42.752Z,95594.34
2023-05-31T19:21:15.766Z,95599.09
2023-05-31T19:23:47.394Z,95599.75
2023-05-31T19:26:19.524Z,95605.44
2023-05-31T19:28:51.674Z,95618.75
2023-05-31T19:31:23.216Z,95606.59
2023-05-31T19:33:57.828Z,95609.41
2023-05-31T19:36:29.627Z,95611.13
2023-05-31T19:39:04.224Z,95609.38
2023-05-31T19:41:35.698Z,95612.66
2023-05-31T19:44:07.069Z,95616.63
2023-05-31T19:46:38.473Z,95612.09
2023-05-31T19:49:09.876Z,95619.22
2023-05-31T19:51:41.312Z,95617.09
2023-05-31T19:54:12.799Z,95615.66
2023-05-31T19:56:44.173Z,95622.38
2023-05-31T19:59:15.730Z,95625.97
2023-05-31T20:01:47.154Z,95631.03
2023-05-31T20:04:18.817Z,95629.63
2023-05-31T20:06:50.634Z,95627.09
2023-05-31T20:09:22.006Z,95625.31
2023-05-31T20:11:53.423Z,95627.38
2023-05-31T20:14:24.964Z,95624.75
2023-05-31T20:16:56.465Z,95631.44
2023-05-31T20:19:28.202Z,95623.81
2023-05-31T20:21:59.729Z,95627.81
2023-05-31T20:24:31.467Z,95625.72
2023-05-31T20:27:03.156Z,95626.38
2023-05-31T20:29:34.572Z,95628.44
2023-05-31T20:32:06.256Z,95623.06
2023-05-31T20:34:37.685Z,95621.19
2023-05-31T20:37:09.134Z,95626.00
2023-05-31T20:39:40.496Z,95622.91
2023-05-31T20:42:11.883Z,95622.97
2023-05-31T20:44:43.812Z,95626.53
2023-05-31T20:47:16.073Z,95625.44
2023-05-31T20:49:47.492Z,95621.63
2023-05-31T20:52:20.214Z,95619.81
2023-05-31T20:54:51.608Z,95621.53
2023-05-31T20:57:23.409Z,95629.38
2023-05-31T20:59:56.403Z,95620.66
2023-05-31T21:02:27.944Z,95624.53
2023-05-31T21:05:00.179Z,95625.06
2023-05-31T21:07:31.869Z,95622.41
2023-05-31T21:10:03.408Z,95616.75
2023-05-31T21:12:34.794Z,95618.41
2023-05-31T21:15:06.537Z,95616.97
2023-05-31T21:17:37.936Z,95619.00
2023-05-31T21:20:09.675Z,95617.53
2023-05-31T21:22:41.123Z,95621.91
2023-05-31T21:25:12.547Z,95620.44
2023-05-31T21:27:43.935Z,95622.09
2023-05-31T21:30:15.611Z,95619.03
2023-05-31T21:32:47.070Z,95623.44
2023-05-31T21:35:18.731Z,95616.13
2023-05-31T21:37:50.446Z,95621.28
2023-05-31T21:40:24.235Z,95616.69
2023-05-31T21:42:55.976Z,95625.69
2023-05-31T21:45:27.372Z,95621.13
2023-05-31T21:47:58.802Z,95625.09
2023-05-31T21:50:30.468Z,95627.41
2023-05-31T21:53:01.898Z,95615.94
2023-05-31T21:55:33.294Z,95632.59
2023-05-31T21:58:04.693Z,95630.75
2023-05-31T22:00:36.188Z,95630.06
2023-05-31T22:03:08.219Z,95624.34
2023-05-31T22:05:39.725Z,95623.25
2023-05-31T22:08:11.072Z,95623.72
2023-05-31T22:10:42.506Z,95623.78
2023-05-31T22:13:14.065Z,95630.00
2023-05-31T22:15:51.530Z,95627.03
2023-05-31T22:18:23.055Z,95631.66
2023-05-31T22:20:56.112Z,95633.19
2023-05-31T22:23:27.520Z,95626.75
2023-05-31T22:25:58.902Z,95628.31
2023-05-31T22:28:30.384Z,95624.59
2023-05-31T22:31:02.308Z,95627.28
2023-05-31T22:33:33.863Z,95629.34
2023-05-31T22:36:05.558Z,95623.59
2023-05-31T22:38:36.927Z,95626.31
2023-05-31T22:41:08.289Z,95625.22
2023-05-31T22:43:39.671Z,95626.81
2023-05-31T22:46:11.088Z,95626.81
2023-05-31T22:48:42.526Z,95627.25
2023-05-31T22:51:13.983Z,95628.88
2023-05-31T22:53:45.442Z,95628.53
2023-05-31T22:56:16.869Z,95628.94
2023-05-31T22:58:48.197Z,95626.25
2023-05-31T23:01:19.588Z,95627.06
2023-05-31T23:03:51.507Z,95622.47
2023-05-31T23:06:26.439Z,95626.00
2023-05-31T23:09:02.590Z,95621.44
2023-05-31T23:11:34.040Z,95622.19
2023-05-31T23:14:05.375Z,95620.72
2023-05-31T23:16:37.717Z,95623.06
2023-05-31T23:19:09.986Z,95625.41
2023-05-31T23:21:46.364Z,95620.44
2023-05-31T23:24:17.962Z,95618.94
2023-05-31T23:26:49.416Z,95619.34
2023-05-31T23:29:20.870Z,95611.66
2023-05-31T23:31:52.270Z,95615.13
2023-05-31T23:34:23.672Z,95607.06
2023-05-31T23:36:55.489Z,95602.13
2023-05-31T23:39:26.837Z,95613.78
2023-05-31T23:41:58.201Z,95608.38
2023-05-31T23:44:29.624Z,95603.81
2023-05-31T23:47:01.040Z,95605.41
2023-05-31T23:49:32.506Z,95612.38
2023-05-31T23:52:03.978Z,95613.50
2023-05-31T23:54:35.741Z,95613.22
2023-05-31T23:57:07.479Z,95611.69
2023-05-31T23:59:38.922Z,95611.72
